sensor_id;sensor_type;location;lat;lon;timestamp;P1;durP1;ratioP1;P2;durP2;ratioP2
55537;SDS011;41383;51.418;7.286;2023-08-08T00:02:05;812.80;;;740.17;;
55537;SDS011;41383;51.418;7.286;2023-08-08T00:04:31;916.20;;;828.80;;
55537;SDS011;41383;51.418;7.286;2023-08-08T00:06:56;952.92;;;848.65;;
55537;SDS011;41383;51.418;7.286;2023-08-08T00:09:21;940.03;;;844.20;;
55537;SDS011;41383;51.418;7.286;2023-08-08T00:11:47;945.40;;;848.97;;
55537;SDS011;41383;51.418;7.286;2023-08-08T00:14:13;960.67;;;858.72;;
55537;SDS011;41383;51.418;7.286;2023-08-08T00:16:38;805.83;;;743.55;;
55537;SDS011;41383;51.418;7.286;2023-08-08T00:19:03;802.63;;;740.33;;
55537;SDS011;41383;51.418;7.286;2023-08-08T00:21:29;794.47;;;733.40;;
55537;SDS011;41383;51.418;7.286;2023-08-08T00:23:54;757.30;;;697.27;;
55537;SDS011;41383;51.418;7.286;2023-08-08T00:26:19;768.47;;;706.20;;
55537;SDS011;41383;51.418;7.286;2023-08-08T00:28:44;859.30;;;783.50;;
55537;SDS011;41383;51.418;7.286;2023-08-08T00:31:10;815.17;;;744.67;;
55537;SDS011;41383;51.418;7.286;2023-08-08T00:33:35;772.03;;;706.57;;
55537;SDS011;41383;51.418;7.286;2023-08-08T00:36:00;842.47;;;769.90;;
55537;SDS011;41383;51.418;7.286;2023-08-08T00:38:25;823.20;;;753.23;;
55537;SDS011;41383;51.418;7.286;2023-08-08T00:40:51;668.83;;;619.30;;
55537;SDS011;41383;51.418;7.286;2023-08-08T00:43:16;744.07;;;688.73;;
55537;SDS011;41383;51.418;7.286;2023-08-08T00:45:42;767.10;;;705.10;;
55537;SDS011;41383;51.418;7.286;2023-08-08T00:48:07;791.67;;;730.47;;
55537;SDS011;41383;51.418;7.286;2023-08-08T00:50:34;740.80;;;680.22;;
55537;SDS011;41383;51.418;7.286;2023-08-08T00:53:00;801.35;;;737.38;;
55537;SDS011;41383;51.418;7.286;2023-08-08T00:55:26;743.25;;;686.75;;
55537;SDS011;41383;51.418;7.286;2023-08-08T00:57:52;823.05;;;749.78;;
55537;SDS011;41383;51.418;7.286;2023-08-08T01:00:17;755.97;;;696.78;;
55537;SDS011;41383;51.418;7.286;2023-08-08T01:02:43;814.40;;;743.13;;
55537;SDS011;41383;51.418;7.286;2023-08-08T01:05:08;857.87;;;779.30;;
55537;SDS011;41383;51.418;7.286;2023-08-08T01:07:44;830.97;;;758.65;;
55537;SDS011;41383;51.418;7.286;2023-08-08T01:10:19;929.00;;;821.20;;
55537;SDS011;41383;51.418;7.286;2023-08-08T01:12:50;780.55;;;713.60;;
55537;SDS011;41383;51.418;7.286;2023-08-08T01:15:19;793.72;;;727.90;;
55537;SDS011;41383;51.418;7.286;2023-08-08T01:17:45;913.03;;;825.45;;
55537;SDS011;41383;51.418;7.286;2023-08-08T01:20:11;955.28;;;863.83;;
55537;SDS011;41383;51.418;7.286;2023-08-08T01:22:55;939.78;;;851.92;;
55537;SDS011;41383;51.418;7.286;2023-08-08T01:25:21;1005.22;;;897.10;;
55537;SDS011;41383;51.418;7.286;2023-08-08T01:27:48;978.03;;;878.60;;
55537;SDS011;41383;51.418;7.286;2023-08-08T01:30:13;817.90;;;748.30;;
55537;SDS011;41383;51.418;7.286;2023-08-08T01:32:38;820.28;;;753.83;;
55537;SDS011;41383;51.418;7.286;2023-08-08T01:35:04;705.27;;;651.40;;
55537;SDS011;41383;51.418;7.286;2023-08-08T01:37:32;913.67;;;826.55;;
55537;SDS011;41383;51.418;7.286;2023-08-08T01:40:04;724.38;;;670.25;;
55537;SDS011;41383;51.418;7.286;2023-08-08T01:42:30;726.50;;;671.40;;
55537;SDS011;41383;51.418;7.286;2023-08-08T01:44:57;897.60;;;812.92;;
55537;SDS011;41383;51.418;7.286;2023-08-08T01:47:23;926.35;;;833.38;;
55537;SDS011;41383;51.418;7.286;2023-08-08T01:49:49;815.90;;;745.78;;
55537;SDS011;41383;51.418;7.286;2023-08-08T01:52:14;720.57;;;665.57;;
55537;SDS011;41383;51.418;7.286;2023-08-08T01:54:39;778.27;;;715.47;;
55537;SDS011;41383;51.418;7.286;2023-08-08T01:57:07;923.90;;;832.78;;
55537;SDS011;41383;51.418;7.286;2023-08-08T01:59:32;856.47;;;790.50;;
55537;SDS011;41383;51.418;7.286;2023-08-08T02:01:57;990.17;;;889.60;;
55537;SDS011;41383;51.418;7.286;2023-08-08T02:04:23;774.97;;;715.80;;
55537;SDS011;41383;51.418;7.286;2023-08-08T02:06:48;766.53;;;708.23;;
55537;SDS011;41383;51.418;7.286;2023-08-08T02:09:13;940.38;;;859.55;;
55537;SDS011;41383;51.418;7.286;2023-08-08T02:11:41;904.47;;;823.63;;
55537;SDS011;41383;51.418;7.286;2023-08-08T02:14:07;1001.50;;;896.78;;
55537;SDS011;41383;51.418;7.286;2023-08-08T02:16:32;797.28;;;730.42;;
55537;SDS011;41383;51.418;7.286;2023-08-08T02:18:59;877.10;;;805.70;;
55537;SDS011;41383;51.418;7.286;2023-08-08T02:21:25;1016.42;;;919.25;;
55537;SDS011;41383;51.418;7.286;2023-08-08T02:23:50;963.80;;;870.63;;
55537;SDS011;41383;51.418;7.286;2023-08-08T02:26:15;958.37;;;863.17;;
55537;SDS011;41383;51.418;7.286;2023-08-08T02:28:40;891.03;;;815.77;;
55537;SDS011;41383;51.418;7.286;2023-08-08T02:31:06;1005.08;;;898.45;;
55537;SDS011;41383;51.418;7.286;2023-08-08T02:33:31;991.13;;;895.33;;
55537;SDS011;41383;51.418;7.286;2023-08-08T02:35:56;1059.77;;;943.50;;
55537;SDS011;41383;51.418;7.286;2023-08-08T02:38:22;1002.57;;;909.27;;
55537;SDS011;41383;51.418;7.286;2023-08-08T02:40:47;1042.00;;;940.33;;
55537;SDS011;41383;51.418;7.286;2023-08-08T02:43:12;1044.37;;;936.20;;
55537;SDS011;41383;51.418;7.286;2023-08-08T02:45:37;853.33;;;778.03;;
55537;SDS011;41383;51.418;7.286;2023-08-08T02:48:03;1000.95;;;904.50;;
55537;SDS011;41383;51.418;7.286;2023-08-08T02:50:28;857.42;;;786.58;;
55537;SDS011;41383;51.418;7.286;2023-08-08T02:52:53;844.57;;;777.87;;
55537;SDS011;41383;51.418;7.286;2023-08-08T02:55:19;841.58;;;777.17;;
55537;SDS011;41383;51.418;7.286;2023-08-08T02:57:44;815.63;;;752.80;;
55537;SDS011;41383;51.418;7.286;2023-08-08T03:00:09;801.45;;;741.67;;
55537;SDS011;41383;51.418;7.286;2023-08-08T03:02:36;894.85;;;805.92;;
55537;SDS011;41383;51.418;7.286;2023-08-08T03:05:01;1045.63;;;943.83;;
55537;SDS011;41383;51.418;7.286;2023-08-08T03:07:26;1046.18;;;949.22;;
55537;SDS011;41383;51.418;7.286;2023-08-08T03:09:52;1048.57;;;956.40;;
55537;SDS011;41383;51.418;7.286;2023-08-08T03:12:17;952.75;;;861.38;;
55537;SDS011;41383;51.418;7.286;2023-08-08T03:14:43;965.75;;;876.88;;
55537;SDS011;41383;51.418;7.286;2023-08-08T03:17:08;1014.45;;;922.00;;
55537;SDS011;41383;51.418;7.286;2023-08-08T03:19:34;996.85;;;907.00;;
55537;SDS011;41383;51.418;7.286;2023-08-08T03:21:59;958.20;;;870.80;;
55537;SDS011;41383;51.418;7.286;2023-08-08T03:24:24;999.43;;;909.23;;
55537;SDS011;41383;51.418;7.286;2023-08-08T03:26:49;1034.78;;;946.38;;
55537;SDS011;41383;51.418;7.286;2023-08-08T03:29:15;1038.17;;;949.67;;
55537;SDS011;41383;51.418;7.286;2023-08-08T03:31:40;990.97;;;905.78;;
55537;SDS011;41383;51.418;7.286;2023-08-08T03:34:05;1026.47;;;930.90;;
55537;SDS011;41383;51.418;7.286;2023-08-08T03:36:31;914.17;;;838.70;;
55537;SDS011;41383;51.418;7.286;2023-08-08T03:38:56;641.42;;;594.78;;
55537;SDS011;41383;51.418;7.286;2023-08-08T03:41:21;653.03;;;604.90;;
55537;SDS011;41383;51.418;7.286;2023-08-08T03:43:46;434.33;;;406.73;;
55537;SDS011;41383;51.418;7.286;2023-08-08T03:46:12;817.67;;;753.77;;
55537;SDS011;41383;51.418;7.286;2023-08-08T03:48:37;695.30;;;646.03;;
55537;SDS011;41383;51.418;7.286;2023-08-08T03:51:03;163.13;;;154.43;;
55537;SDS011;41383;51.418;7.286;2023-08-08T03:53:29;405.08;;;383.77;;
55537;SDS011;41383;51.418;7.286;2023-08-08T03:55:54;671.63;;;631.00;;
55537;SDS011;41383;51.418;7.286;2023-08-08T03:58:19;847.87;;;792.53;;
55537;SDS011;41383;51.418;7.286;2023-08-08T04:00:45;596.10;;;559.55;;
55537;SDS011;41383;51.418;7.286;2023-08-08T04:03:13;376.25;;;356.10;;
55537;SDS011;41383;51.418;7.286;2023-08-08T04:05:40;581.85;;;547.85;;
55537;SDS011;41383;51.418;7.286;2023-08-08T04:08:06;319.60;;;303.23;;
55537;SDS011;41383;51.418;7.286;2023-08-08T04:10:31;155.50;;;147.07;;
55537;SDS011;41383;51.418;7.286;2023-08-08T04:12:57;122.72;;;117.03;;
55537;SDS011;41383;51.418;7.286;2023-08-08T04:15:22;550.08;;;517.25;;
55537;SDS011;41383;51.418;7.286;2023-08-08T04:17:47;283.13;;;268.00;;
55537;SDS011;41383;51.418;7.286;2023-08-08T04:20:12;248.60;;;235.45;;
55537;SDS011;41383;51.418;7.286;2023-08-08T04:22:39;453.08;;;427.23;;
55537;SDS011;41383;51.418;7.286;2023-08-08T04:25:05;406.45;;;383.83;;
55537;SDS011;41383;51.418;7.286;2023-08-08T04:27:30;838.05;;;782.42;;
55537;SDS011;41383;51.418;7.286;2023-08-08T04:29:56;956.00;;;886.67;;
55537;SDS011;41383;51.418;7.286;2023-08-08T04:32:21;867.50;;;809.95;;
55537;SDS011;41383;51.418;7.286;2023-08-08T04:34:46;952.40;;;882.20;;
55537;SDS011;41383;51.418;7.286;2023-08-08T04:37:12;827.53;;;773.17;;
55537;SDS011;41383;51.418;7.286;2023-08-08T04:39:37;831.00;;;776.13;;
55537;SDS011;41383;51.418;7.286;2023-08-08T04:42:02;821.28;;;768.50;;
55537;SDS011;41383;51.418;7.286;2023-08-08T04:44:28;853.47;;;796.25;;
55537;SDS011;41383;51.418;7.286;2023-08-08T04:46:53;781.92;;;731.33;;
55537;SDS011;41383;51.418;7.286;2023-08-08T04:49:18;886.13;;;821.63;;
55537;SDS011;41383;51.418;7.286;2023-08-08T04:51:44;867.83;;;802.47;;
55537;SDS011;41383;51.418;7.286;2023-08-08T04:54:09;820.50;;;766.47;;
55537;SDS011;41383;51.418;7.286;2023-08-08T04:56:34;880.45;;;821.58;;
55537;SDS011;41383;51.418;7.286;2023-08-08T04:58:59;739.33;;;694.00;;
55537;SDS011;41383;51.418;7.286;2023-08-08T05:01:25;609.77;;;575.50;;
55537;SDS011;41383;51.418;7.286;2023-08-08T05:03:50;705.27;;;663.40;;
55537;SDS011;41383;51.418;7.286;2023-08-08T05:06:15;584.53;;;553.47;;
55537;SDS011;41383;51.418;7.286;2023-08-08T05:08:41;957.67;;;887.35;;
55537;SDS011;41383;51.418;7.286;2023-08-08T05:11:06;777.72;;;729.00;;
55537;SDS011;41383;51.418;7.286;2023-08-08T05:13:32;821.60;;;769.38;;
55537;SDS011;41383;51.418;7.286;2023-08-08T05:15:57;728.13;;;681.37;;
55537;SDS011;41383;51.418;7.286;2023-08-08T05:18:22;817.77;;;764.40;;
55537;SDS011;41383;51.418;7.286;2023-08-08T05:20:47;772.80;;;722.42;;
55537;SDS011;41383;51.418;7.286;2023-08-08T05:23:13;791.58;;;741.47;;
55537;SDS011;41383;51.418;7.286;2023-08-08T05:25:38;884.88;;;823.80;;
55537;SDS011;41383;51.418;7.286;2023-08-08T05:28:04;978.55;;;907.40;;
55537;SDS011;41383;51.418;7.286;2023-08-08T05:30:29;898.72;;;837.97;;
55537;SDS011;41383;51.418;7.286;2023-08-08T05:32:55;818.40;;;765.95;;
55537;SDS011;41383;51.418;7.286;2023-08-08T05:35:20;827.20;;;772.00;;
55537;SDS011;41383;51.418;7.286;2023-08-08T05:37:45;794.37;;;743.40;;
55537;SDS011;41383;51.418;7.286;2023-08-08T05:40:10;845.93;;;791.23;;
55537;SDS011;41383;51.418;7.286;2023-08-08T05:42:37;825.00;;;772.40;;
55537;SDS011;41383;51.418;7.286;2023-08-08T05:45:03;875.75;;;817.42;;
55537;SDS011;41383;51.418;7.286;2023-08-08T05:47:28;858.35;;;801.33;;
55537;SDS011;41383;51.418;7.286;2023-08-08T05:49:53;868.05;;;811.17;;
55537;SDS011;41383;51.418;7.286;2023-08-08T05:52:19;895.87;;;837.03;;
55537;SDS011;41383;51.418;7.286;2023-08-08T05:54:46;794.83;;;742.75;;
55537;SDS011;41383;51.418;7.286;2023-08-08T05:57:11;852.23;;;796.83;;
55537;SDS011;41383;51.418;7.286;2023-08-08T05:59:36;888.50;;;829.28;;
55537;SDS011;41383;51.418;7.286;2023-08-08T06:02:02;826.42;;;772.13;;
55537;SDS011;41383;51.418;7.286;2023-08-08T06:04:27;849.45;;;793.92;;
55537;SDS011;41383;51.418;7.286;2023-08-08T06:06:53;825.58;;;771.38;;
55537;SDS011;41383;51.418;7.286;2023-08-08T06:09:18;875.25;;;815.72;;
55537;SDS011;41383;51.418;7.286;2023-08-08T06:11:44;873.20;;;813.38;;
55537;SDS011;41383;51.418;7.286;2023-08-08T06:14:09;879.45;;;819.38;;
55537;SDS011;41383;51.418;7.286;2023-08-08T06:16:34;885.97;;;828.03;;
55537;SDS011;41383;51.418;7.286;2023-08-08T06:19:00;907.88;;;845.30;;
55537;SDS011;41383;51.418;7.286;2023-08-08T06:21:25;768.90;;;718.22;;
55537;SDS011;41383;51.418;7.286;2023-08-08T06:23:51;962.38;;;888.00;;
55537;SDS011;41383;51.418;7.286;2023-08-08T06:26:19;892.13;;;831.75;;
55537;SDS011;41383;51.418;7.286;2023-08-08T06:28:46;867.65;;;810.15;;
55537;SDS011;41383;51.418;7.286;2023-08-08T06:31:11;791.90;;;737.40;;
55537;SDS011;41383;51.418;7.286;2023-08-08T06:33:36;877.25;;;819.28;;
55537;SDS011;41383;51.418;7.286;2023-08-08T06:36:01;732.00;;;685.85;;
55537;SDS011;41383;51.418;7.286;2023-08-08T06:38:28;820.63;;;760.03;;
55537;SDS011;41383;51.418;7.286;2023-08-08T06:40:53;837.70;;;782.38;;
55537;SDS011;41383;51.418;7.286;2023-08-08T06:43:21;861.88;;;803.78;;
55537;SDS011;41383;51.418;7.286;2023-08-08T06:45:46;906.58;;;845.10;;
55537;SDS011;41383;51.418;7.286;2023-08-08T06:48:11;734.28;;;685.75;;
55537;SDS011;41383;51.418;7.286;2023-08-08T06:50:36;767.53;;;717.73;;
55537;SDS011;41383;51.418;7.286;2023-08-08T06:53:02;485.65;;;455.10;;
55537;SDS011;41383;51.418;7.286;2023-08-08T06:55:28;535.22;;;499.42;;
55537;SDS011;41383;51.418;7.286;2023-08-08T06:57:53;415.15;;;390.55;;
55537;SDS011;41383;51.418;7.286;2023-08-08T07:00:19;714.47;;;668.30;;
55537;SDS011;41383;51.418;7.286;2023-08-08T07:02:44;454.85;;;426.90;;
55537;SDS011;41383;51.418;7.286;2023-08-08T07:05:09;534.93;;;502.07;;
55537;SDS011;41383;51.418;7.286;2023-08-08T07:07:35;137.07;;;129.57;;
55537;SDS011;41383;51.418;7.286;2023-08-08T07:10:01;692.25;;;647.35;;
55537;SDS011;41383;51.418;7.286;2023-08-08T07:12:26;509.98;;;479.08;;
55537;SDS011;41383;51.418;7.286;2023-08-08T07:14:52;306.20;;;288.58;;
55537;SDS011;41383;51.418;7.286;2023-08-08T07:17:17;620.30;;;582.23;;
55537;SDS011;41383;51.418;7.286;2023-08-08T07:19:42;551.97;;;519.00;;
55537;SDS011;41383;51.418;7.286;2023-08-08T07:22:08;484.30;;;454.40;;
55537;SDS011;41383;51.418;7.286;2023-08-08T07:24:33;293.77;;;277.02;;
55537;SDS011;41383;51.418;7.286;2023-08-08T07:26:59;756.65;;;707.85;;
55537;SDS011;41383;51.418;7.286;2023-08-08T07:29:24;860.45;;;803.47;;
55537;SDS011;41383;51.418;7.286;2023-08-08T07:31:52;713.22;;;666.08;;
55537;SDS011;41383;51.418;7.286;2023-08-08T07:34:18;766.15;;;715.03;;
55537;SDS011;41383;51.418;7.286;2023-08-08T07:36:43;878.20;;;819.65;;
55537;SDS011;41383;51.418;7.286;2023-08-08T07:39:09;628.23;;;588.07;;
55537;SDS011;41383;51.418;7.286;2023-08-08T07:41:34;849.05;;;784.22;;
55537;SDS011;41383;51.418;7.286;2023-08-08T07:44:00;859.08;;;802.25;;
55537;SDS011;41383;51.418;7.286;2023-08-08T07:46:25;632.50;;;591.60;;
55537;SDS011;41383;51.418;7.286;2023-08-08T07:48:50;904.30;;;833.78;;
55537;SDS011;41383;51.418;7.286;2023-08-08T07:51:15;594.30;;;558.00;;
55537;SDS011;41383;51.418;7.286;2023-08-08T07:53:41;808.58;;;745.58;;
55537;SDS011;41383;51.418;7.286;2023-08-08T07:56:06;802.00;;;749.50;;
55537;SDS011;41383;51.418;7.286;2023-08-08T07:58:32;837.95;;;782.20;;
55537;SDS011;41383;51.418;7.286;2023-08-08T08:00:57;816.22;;;761.65;;
55537;SDS011;41383;51.418;7.286;2023-08-08T08:03:23;750.33;;;701.90;;
55537;SDS011;41383;51.418;7.286;2023-08-08T08:05:49;912.88;;;848.90;;
55537;SDS011;41383;51.418;7.286;2023-08-08T08:08:14;864.70;;;807.33;;
55537;SDS011;41383;51.418;7.286;2023-08-08T08:10:39;814.40;;;758.23;;
55537;SDS011;41383;51.418;7.286;2023-08-08T08:13:05;853.83;;;797.30;;
55537;SDS011;41383;51.418;7.286;2023-08-08T08:15:30;902.77;;;843.67;;
55537;SDS011;41383;51.418;7.286;2023-08-08T08:17:55;842.05;;;788.03;;
55537;SDS011;41383;51.418;7.286;2023-08-08T08:20:21;905.72;;;844.60;;
55537;SDS011;41383;51.418;7.286;2023-08-08T08:22:46;934.40;;;869.65;;
55537;SDS011;41383;51.418;7.286;2023-08-08T08:25:12;902.65;;;839.70;;
55537;SDS011;41383;51.418;7.286;2023-08-08T08:27:38;901.60;;;841.08;;
55537;SDS011;41383;51.418;7.286;2023-08-08T08:30:04;937.10;;;873.13;;
55537;SDS011;41383;51.418;7.286;2023-08-08T08:32:32;917.67;;;853.60;;
55537;SDS011;41383;51.418;7.286;2023-08-08T08:35:03;851.55;;;794.63;;
55537;SDS011;41383;51.418;7.286;2023-08-08T08:37:29;852.13;;;795.38;;
55537;SDS011;41383;51.418;7.286;2023-08-08T08:39:55;886.80;;;825.97;;
55537;SDS011;41383;51.418;7.286;2023-08-08T08:42:20;895.87;;;836.20;;
55537;SDS011;41383;51.418;7.286;2023-08-08T08:44:47;941.47;;;876.65;;
55537;SDS011;41383;51.418;7.286;2023-08-08T08:47:14;920.40;;;858.05;;
55537;SDS011;41383;51.418;7.286;2023-08-08T08:49:42;919.47;;;856.30;;
55537;SDS011;41383;51.418;7.286;2023-08-08T08:52:10;973.88;;;888.03;;
55537;SDS011;41383;51.418;7.286;2023-08-08T08:54:36;642.40;;;600.67;;
55537;SDS011;41383;51.418;7.286;2023-08-08T08:57:01;298.43;;;282.97;;
55537;SDS011;41383;51.418;7.286;2023-08-08T08:59:27;253.77;;;240.43;;
55537;SDS011;41383;51.418;7.286;2023-08-08T09:01:53;612.43;;;569.40;;
55537;SDS011;41383;51.418;7.286;2023-08-08T09:04:19;923.47;;;851.05;;
55537;SDS011;41383;51.418;7.286;2023-08-08T09:06:46;896.80;;;828.58;;
55537;SDS011;41383;51.418;7.286;2023-08-08T09:09:13;999.78;;;916.42;;
55537;SDS011;41383;51.418;7.286;2023-08-08T09:11:40;980.58;;;903.75;;
55537;SDS011;41383;51.418;7.286;2023-08-08T09:14:17;919.80;;;850.65;;
55537;SDS011;41383;51.418;7.286;2023-08-08T09:16:44;1003.20;;;920.25;;
55537;SDS011;41383;51.418;7.286;2023-08-08T09:19:11;1070.57;;;979.40;;
55537;SDS011;41383;51.418;7.286;2023-08-08T09:21:36;1022.58;;;931.33;;
55537;SDS011;41383;51.418;7.286;2023-08-08T09:24:01;1023.53;;;936.10;;
55537;SDS011;41383;51.418;7.286;2023-08-08T09:26:28;1099.30;;;994.03;;
55537;SDS011;41383;51.418;7.286;2023-08-08T09:28:53;1060.20;;;950.15;;
55537;SDS011;41383;51.418;7.286;2023-08-08T09:31:18;1031.10;;;926.53;;
55537;SDS011;41383;51.418;7.286;2023-08-08T09:33:44;967.42;;;873.42;;
55537;SDS011;41383;51.418;7.286;2023-08-08T09:36:16;1196.78;;;988.15;;
55537;SDS011;41383;51.418;7.286;2023-08-08T09:38:41;895.80;;;817.55;;
55537;SDS011;41383;51.418;7.286;2023-08-08T09:41:06;1145.70;;;999.90;;
55537;SDS011;41383;51.418;7.286;2023-08-08T09:43:32;1183.53;;;999.90;;
55537;SDS011;41383;51.418;7.286;2023-08-08T09:45:57;468.27;;;438.42;;
55537;SDS011;41383;51.418;7.286;2023-08-08T09:48:28;912.42;;;843.92;;
55537;SDS011;41383;51.418;7.286;2023-08-08T09:50:55;547.60;;;504.20;;
55537;SDS011;41383;51.418;7.286;2023-08-08T09:53:22;116.03;;;110.70;;
55537;SDS011;41383;51.418;7.286;2023-08-08T09:55:48;224.55;;;211.25;;
55537;SDS011;41383;51.418;7.286;2023-08-08T09:58:14;446.20;;;418.38;;
55537;SDS011;41383;51.418;7.286;2023-08-08T10:00:39;1835.75;;;999.90;;
55537;SDS011;41383;51.418;7.286;2023-08-08T10:03:06;1688.95;;;999.90;;
55537;SDS011;41383;51.418;7.286;2023-08-08T10:05:32;967.47;;;889.17;;
55537;SDS011;41383;51.418;7.286;2023-08-08T10:07:57;1999.90;;;999.90;;
55537;SDS011;41383;51.418;7.286;2023-08-08T10:10:22;1999.90;;;999.90;;
55537;SDS011;41383;51.418;7.286;2023-08-08T10:12:49;1207.95;;;999.90;;
55537;SDS011;41383;51.418;7.286;2023-08-08T10:15:14;1885.57;;;999.90;;
55537;SDS011;41383;51.418;7.286;2023-08-08T10:17:41;1115.78;;;991.67;;
55537;SDS011;41383;51.418;7.286;2023-08-08T10:20:08;1314.50;;;999.90;;
55537;SDS011;41383;51.418;7.286;2023-08-08T10:22:41;1231.97;;;999.90;;
55537;SDS011;41383;51.418;7.286;2023-08-08T10:25:08;1180.28;;;999.90;;
55537;SDS011;41383;51.418;7.286;2023-08-08T10:27:34;933.65;;;864.60;;
55537;SDS011;41383;51.418;7.286;2023-08-08T10:30:02;1231.13;;;999.90;;
55537;SDS011;41383;51.418;7.286;2023-08-08T10:32:53;1183.72;;;999.90;;
55537;SDS011;41383;51.418;7.286;2023-08-08T10:35:22;1999.90;;;999.90;;
55537;SDS011;41383;51.418;7.286;2023-08-08T10:37:53;1999.90;;;999.90;;
55537;SDS011;41383;51.418;7.286;2023-08-08T10:40:19;1999.90;;;999.90;;
55537;SDS011;41383;51.418;7.286;2023-08-08T10:42:46;1999.90;;;999.90;;
55537;SDS011;41383;51.418;7.286;2023-08-08T10:45:13;1999.90;;;999.90;;
55537;SDS011;41383;51.418;7.286;2023-08-08T10:47:40;628.58;;;277.98;;
55537;SDS011;41383;51.418;7.286;2023-08-08T10:50:07;410.02;;;386.45;;
55537;SDS011;41383;51.418;7.286;2023-08-08T10:52:54;548.03;;;513.55;;
55537;SDS011;41383;51.418;7.286;2023-08-08T10:55:25;408.38;;;382.92;;
55537;SDS011;41383;51.418;7.286;2023-08-08T10:58:02;540.60;;;488.83;;
55537;SDS011;41383;51.418;7.286;2023-08-08T11:00:31;1016.28;;;928.35;;
55537;SDS011;41383;51.418;7.286;2023-08-08T11:02:58;1999.90;;;999.90;;
55537;SDS011;41383;51.418;7.286;2023-08-08T11:05:24;1999.90;;;999.90;;
55537;SDS011;41383;51.418;7.286;2023-08-08T11:07:51;1370.45;;;999.90;;
55537;SDS011;41383;51.418;7.286;2023-08-08T11:10:17;1999.90;;;999.90;;
55537;SDS011;41383;51.418;7.286;2023-08-08T11:12:51;1728.25;;;497.73;;
55537;SDS011;41383;51.418;7.286;2023-08-08T11:15:18;1999.90;;;999.90;;
55537;SDS011;41383;51.418;7.286;2023-08-08T11:17:43;1999.90;;;999.90;;
55537;SDS011;41383;51.418;7.286;2023-08-08T11:20:10;1999.90;;;999.90;;
55537;SDS011;41383;51.418;7.286;2023-08-08T11:22:36;1045.32;;;942.45;;
55537;SDS011;41383;51.418;7.286;2023-08-08T11:25:01;1065.83;;;935.87;;
55537;SDS011;41383;51.418;7.286;2023-08-08T11:27:28;1999.90;;;999.90;;
55537;SDS011;41383;51.418;7.286;2023-08-08T11:29:55;1643.47;;;999.90;;
55537;SDS011;41383;51.418;7.286;2023-08-08T11:32:21;5.07;;;2.33;;
55537;SDS011;41383;51.418;7.286;2023-08-08T11:34:47;9.15;;;3.15;;
55537;SDS011;41383;51.418;7.286;2023-08-08T11:37:12;46.90;;;42.38;;
55537;SDS011;41383;51.418;7.286;2023-08-08T11:39:40;81.57;;;74.43;;
55537;SDS011;41383;51.418;7.286;2023-08-08T11:42:06;280.50;;;109.43;;
55537;SDS011;41383;51.418;7.286;2023-08-08T11:44:31;7.03;;;4.60;;
55537;SDS011;41383;51.418;7.286;2023-08-08T11:47:00;1167.18;;;734.78;;
55537;SDS011;41383;51.418;7.286;2023-08-08T11:49:26;1999.90;;;999.90;;
55537;SDS011;41383;51.418;7.286;2023-08-08T11:51:53;1999.90;;;999.90;;
55537;SDS011;41383;51.418;7.286;2023-08-08T11:54:26;1999.90;;;999.90;;
55537;SDS011;41383;51.418;7.286;2023-08-08T11:56:52;1999.90;;;999.90;;
55537;SDS011;41383;51.418;7.286;2023-08-08T11:59:18;1018.90;;;934.30;;
55537;SDS011;41383;51.418;7.286;2023-08-08T12:01:44;54.60;;;52.05;;
55537;SDS011;41383;51.418;7.286;2023-08-08T12:04:10;8.43;;;2.60;;
55537;SDS011;41383;51.418;7.286;2023-08-08T12:06:38;5.90;;;2.70;;
55537;SDS011;41383;51.418;7.286;2023-08-08T12:09:05;10.75;;;3.17;;
55537;SDS011;41383;51.418;7.286;2023-08-08T12:11:33;9.45;;;2.85;;
55537;SDS011;41383;51.418;7.286;2023-08-08T12:13:59;15.88;;;4.03;;
55537;SDS011;41383;51.418;7.286;2023-08-08T12:16:27;13.05;;;3.22;;
55537;SDS011;41383;51.418;7.286;2023-08-08T12:18:54;9.63;;;3.30;;
55537;SDS011;41383;51.418;7.286;2023-08-08T12:21:20;17.27;;;3.70;;
55537;SDS011;41383;51.418;7.286;2023-08-08T12:23:45;6.63;;;2.70;;
55537;SDS011;41383;51.418;7.286;2023-08-08T12:26:10;9.37;;;3.10;;
55537;SDS011;41383;51.418;7.286;2023-08-08T12:28:36;8.35;;;3.47;;
55537;SDS011;41383;51.418;7.286;2023-08-08T12:31:01;10.88;;;4.25;;
55537;SDS011;41383;51.418;7.286;2023-08-08T12:33:27;10.45;;;3.42;;
55537;SDS011;41383;51.418;7.286;2023-08-08T12:35:52;8.20;;;4.13;;
55537;SDS011;41383;51.418;7.286;2023-08-08T12:38:17;14.02;;;3.35;;
55537;SDS011;41383;51.418;7.286;2023-08-08T12:40:43;5.70;;;2.63;;
55537;SDS011;41383;51.418;7.286;2023-08-08T12:43:09;7.13;;;2.40;;
55537;SDS011;41383;51.418;7.286;2023-08-08T12:45:38;6.90;;;3.47;;
55537;SDS011;41383;51.418;7.286;2023-08-08T12:48:04;8.95;;;2.50;;
55537;SDS011;41383;51.418;7.286;2023-08-08T12:50:29;8.50;;;2.75;;
55537;SDS011;41383;51.418;7.286;2023-08-08T12:52:55;7.80;;;2.60;;
55537;SDS011;41383;51.418;7.286;2023-08-08T12:55:20;7.37;;;2.17;;
55537;SDS011;41383;51.418;7.286;2023-08-08T12:57:45;8.52;;;3.65;;
55537;SDS011;41383;51.418;7.286;2023-08-08T13:00:11;10.30;;;3.33;;
55537;SDS011;41383;51.418;7.286;2023-08-08T13:02:37;20.85;;;4.32;;
55537;SDS011;41383;51.418;7.286;2023-08-08T13:05:03;8.93;;;3.33;;
55537;SDS011;41383;51.418;7.286;2023-08-08T13:07:31;12.63;;;3.45;;
55537;SDS011;41383;51.418;7.286;2023-08-08T13:09:57;12.27;;;2.72;;
55537;SDS011;41383;51.418;7.286;2023-08-08T13:12:22;12.20;;;3.60;;
55537;SDS011;41383;51.418;7.286;2023-08-08T13:14:48;6.43;;;2.80;;
55537;SDS011;41383;51.418;7.286;2023-08-08T13:17:13;5.60;;;2.73;;
55537;SDS011;41383;51.418;7.286;2023-08-08T13:19:38;11.27;;;2.57;;
55537;SDS011;41383;51.418;7.286;2023-08-08T13:22:04;8.13;;;2.72;;
55537;SDS011;41383;51.418;7.286;2023-08-08T13:24:29;6.60;;;3.20;;
55537;SDS011;41383;51.418;7.286;2023-08-08T13:26:55;6.22;;;3.30;;
55537;SDS011;41383;51.418;7.286;2023-08-08T13:29:20;7.37;;;3.30;;
55537;SDS011;41383;51.418;7.286;2023-08-08T13:31:45;8.37;;;3.03;;
55537;SDS011;41383;51.418;7.286;2023-08-08T13:34:10;8.83;;;3.30;;
55537;SDS011;41383;51.418;7.286;2023-08-08T13:36:36;8.90;;;2.77;;
55537;SDS011;41383;51.418;7.286;2023-08-08T13:39:01;8.43;;;2.70;;
55537;SDS011;41383;51.418;7.286;2023-08-08T13:41:27;4.90;;;2.47;;
55537;SDS011;41383;51.418;7.286;2023-08-08T13:43:52;5.32;;;2.05;;
55537;SDS011;41383;51.418;7.286;2023-08-08T13:46:18;7.17;;;3.23;;
55537;SDS011;41383;51.418;7.286;2023-08-08T13:48:43;11.33;;;3.03;;
55537;SDS011;41383;51.418;7.286;2023-08-08T13:51:08;12.63;;;3.67;;
55537;SDS011;41383;51.418;7.286;2023-08-08T13:53:33;8.63;;;2.07;;
55537;SDS011;41383;51.418;7.286;2023-08-08T13:55:59;4.07;;;2.35;;